Quiring, Minnesota
Current Conditions -  °F | °C
As of 7:09 PM on Thursday 18 Dec 2014 (Local Time) from KVWU Reporting Station
Overcast Overcast  
Wind Chill: 18°   Ceiling: 1500
Heat Index: 18°   Visibility: 10mi
Dew Point: 16°   Wind: 0mph
Humidity: 93%   Direction: NA
Pressure: 30.2"   Gusts: NA
Location:  47.7306°N, 94.3762°W
Report Text: KVWU 190109Z AUTO 00000KT 10SM OVC015 M08/M09 A3020 RMK AO2
Loading
Personal Weather Stations






























Interactive Weather Map New forecast layout! Learn more

10-Day Weather Forecast

Advertisements
Track Severe Weather on mobile